Chouei Maru — JD3172 — position and weather

sailwx.info

Track history (hours):
 
Tides and Currents Weather Stations Pressure Air Temp Water Temp Dewpoint Dewpoint Depression Visibility Wind Speed Wind Dir Waves Ship Positions

Chouei Maru

Last reported at 2017-Oct-08 08:54 UTC. Time now 2017-Oct-18 16:30 UTC.
Position N 35°30' E 139°52'.
Warning: this ship's position is 10 days out of date.

Length 68 m.

Type: Cargo ship. MMSI: 431002349.

Date/timePositionNaut miles runAvg speedWind from/ knotsBaromVisibWave heightAir tempDewpointWater temp
2017-Oct-08 08:54N 35°30' E 139°52'511.9
2017-Oct-08 08:26N 35°25' E 139°48'611.7
2017-Oct-08 07:54N 35°20' E 139°44'511.5
2017-Oct-08 07:29N 35°15' E 139°47'611.8
2017-Oct-08 07:00N 35°10' E 139°46'611.1
2017-Oct-08 06:30N 35°06' E 139°42'231 8.3
2017-Oct-07 02:40N 34°34' E 135°03'  
2017-Sep-28 20:58N 34°36' E 135°03'510.1
2017-Sep-28 20:30N 34°32' E 135°04'  
Track history (hours):
 
Tides and Currents Weather Stations Pressure Air Temp Water Temp Dewpoint Dewpoint Depression Visibility Wind Speed Wind Dir Waves Ship Positions

Chouei Maru

Last reported at 2017-Oct-08 08:54 UTC. Time now 2017-Oct-18 16:30 UTC.
Position N 35°30' E 139°52'.
Warning: this ship's position is 10 days out of date.

Length 68 m.

Type: Cargo ship. MMSI: 431002349.

Date/timePositionNaut miles runAvg speedWind from/ knotsBaromVisibWave heightAir tempDewpointWater temp
2017-Oct-08 08:54N 35°30' E 139°52'511.9
2017-Oct-08 08:26N 35°25' E 139°48'611.7
2017-Oct-08 07:54N 35°20' E 139°44'511.5
2017-Oct-08 07:29N 35°15' E 139°47'611.8
2017-Oct-08 07:00N 35°10' E 139°46'611.1
2017-Oct-08 06:30N 35°06' E 139°42'231 8.3
2017-Oct-07 02:40N 34°34' E 135°03'  
2017-Sep-28 20:58N 34°36' E 135°03'510.1
2017-Sep-28 20:30N 34°32' E 135°04'  

Dump ship's entire track history